Southgate, MI (48195)

07:14 PM EST on februarie 22, 2017 (GMT -0500)
Burns and Eureka | | Change Station

Elev 587 ft 42.20 °N, 83.19 °W | Updated 7 seconds ago

Cer acoperit
Cer acoperit
59.2 °F
Feels Like 59.2 °F
N
2.5
Vânt variabil Vânt from sud
Gusts 2.5 mph

astăzi
High -- | Low -- °F
--% Chance of Precip.
Ieri
High -- | Low -- °F
Precip. -- inch
Presiunea 29.74 inch
Vizibilitatea 2.0 mile
Nori Nori risipiţi 1100 ft
Cer acoperit 3900 ft
Punctul de rouă 36 °F
Umiditatea 41%
Precipitaţii 0.00 inch
Adâncimea zăpezii Not available.
7:18 AM 6:14 PM
Semilună în descreştere, 14% visible
METAR KONZ 222353Z AUTO 19012KT 2SM BR SCT011 OVC039 09/09 A2974 RMK AO2 T00910089 10124 20074
Presiunea 29.74 inch
Vizibilitatea 2.0 mile
Nori Nori risipiţi 1100 ft
Cer acoperit 3900 ft
Punctul de rouă 36 °F
Umiditatea 41%
Precipitaţii 0.00 inch
Adâncimea zăpezii Not available.
7:18 AM 6:14 PM
Semilună în descreştere, 14% visible
METAR KONZ 222353Z AUTO 19012KT 2SM BR SCT011 OVC039 09/09 A2974 RMK AO2 T00910089 10124 20074

Get Your Daily Forecast Email!

Thanks for signing up!

Be on the lookout for a verification email in your inbox.

You'll start receiving the daily forecast at 8 AM.

×

10-Day Weather Forecast

Almanac

Astronomie

Feb. 22, 2017 Răsărit Apus
Timpul Actual
Crepusculul Civil
Crepusculul nautic
Răsărit Astronomic
Luna
Durata zilei lumină
Lungimea zilei
Tomorrow will be .
, % of the Moon is Illuminated

Extremele de azi

State Highs State Lows

Community

WunderPhotos

Upload Photos

1,962,540 photos uploaded!

WunderBlog® & News

Nearby

Calitatea aerului

  Calitatea aerului Index de calitate a aerului Poluat
Not available.

Adâncimea zapezii

Station Depth Elevation

Earthquake Activity

Oraş Distance Mag. Time & Date
Minimum magnitude displayed is 2.5.

Coastal Water Temperatures

Locul Temperatura

Stations

Nearby Weather Stations

Locaţia staţiei Temp Vânt rece Punctul de rouă Umiditatea Vânt Precip. Elev Actualizare Type
                   

Watches & Warnings

There are currently no watches in effect.